sensor_id;sensor_type;location;lat;lon;timestamp;P1;durP1;ratioP1;P2;durP2;ratioP2
73571;SDS011;61854;48.510;-2.770;2022-07-10T00:00:17;4.47;;;1.60;;
73571;SDS011;61854;48.510;-2.770;2022-07-10T00:02:45;4.53;;;2.28;;
73571;SDS011;61854;48.510;-2.770;2022-07-10T00:05:11;3.38;;;1.98;;
73571;SDS011;61854;48.510;-2.770;2022-07-10T00:07:37;3.30;;;1.98;;
73571;SDS011;61854;48.510;-2.770;2022-07-10T00:10:03;4.00;;;1.88;;
73571;SDS011;61854;48.510;-2.770;2022-07-10T00:12:29;4.75;;;1.88;;
73571;SDS011;61854;48.510;-2.770;2022-07-10T00:14:55;4.10;;;1.50;;
73571;SDS011;61854;48.510;-2.770;2022-07-10T00:17:20;3.35;;;1.90;;
73571;SDS011;61854;48.510;-2.770;2022-07-10T00:19:46;4.18;;;1.90;;
73571;SDS011;61854;48.510;-2.770;2022-07-10T00:22:12;3.47;;;1.77;;
73571;SDS011;61854;48.510;-2.770;2022-07-10T00:24:37;3.38;;;1.88;;
73571;SDS011;61854;48.510;-2.770;2022-07-10T00:27:03;4.60;;;1.90;;
73571;SDS011;61854;48.510;-2.770;2022-07-10T00:29:29;4.05;;;2.00;;
73571;SDS011;61854;48.510;-2.770;2022-07-10T00:31:55;3.05;;;1.90;;
73571;SDS011;61854;48.510;-2.770;2022-07-10T00:34:20;4.30;;;1.65;;
73571;SDS011;61854;48.510;-2.770;2022-07-10T00:36:46;3.60;;;1.63;;
73571;SDS011;61854;48.510;-2.770;2022-07-10T00:39:11;4.07;;;2.10;;
73571;SDS011;61854;48.510;-2.770;2022-07-10T00:41:37;3.40;;;1.90;;
73571;SDS011;61854;48.510;-2.770;2022-07-10T00:44:03;2.90;;;1.88;;
73571;SDS011;61854;48.510;-2.770;2022-07-10T00:46:29;4.50;;;2.60;;
73571;SDS011;61854;48.510;-2.770;2022-07-10T00:48:56;5.70;;;1.95;;
73571;SDS011;61854;48.510;-2.770;2022-07-10T00:51:25;7.22;;;1.75;;
73571;SDS011;61854;48.510;-2.770;2022-07-10T00:53:53;4.03;;;1.85;;
73571;SDS011;61854;48.510;-2.770;2022-07-10T00:56:21;4.72;;;1.95;;
73571;SDS011;61854;48.510;-2.770;2022-07-10T00:58:48;3.47;;;2.05;;
73571;SDS011;61854;48.510;-2.770;2022-07-10T01:01:15;3.92;;;1.88;;
73571;SDS011;61854;48.510;-2.770;2022-07-10T01:03:41;4.25;;;2.00;;
73571;SDS011;61854;48.510;-2.770;2022-07-10T01:06:08;5.45;;;2.22;;
73571;SDS011;61854;48.510;-2.770;2022-07-10T01:08:34;4.03;;;1.80;;
73571;SDS011;61854;48.510;-2.770;2022-07-10T01:11:00;4.88;;;2.15;;
73571;SDS011;61854;48.510;-2.770;2022-07-10T01:13:26;4.43;;;1.92;;
73571;SDS011;61854;48.510;-2.770;2022-07-10T01:15:52;3.97;;;2.10;;
73571;SDS011;61854;48.510;-2.770;2022-07-10T01:18:18;4.68;;;2.08;;
73571;SDS011;61854;48.510;-2.770;2022-07-10T01:20:44;5.63;;;2.00;;
73571;SDS011;61854;48.510;-2.770;2022-07-10T01:23:09;5.05;;;1.88;;
73571;SDS011;61854;48.510;-2.770;2022-07-10T01:25:35;4.40;;;2.00;;
73571;SDS011;61854;48.510;-2.770;2022-07-10T01:28:00;3.53;;;2.10;;
73571;SDS011;61854;48.510;-2.770;2022-07-10T01:30:26;4.93;;;2.25;;
73571;SDS011;61854;48.510;-2.770;2022-07-10T01:32:52;6.18;;;2.38;;
73571;SDS011;61854;48.510;-2.770;2022-07-10T01:35:18;6.82;;;1.90;;
73571;SDS011;61854;48.510;-2.770;2022-07-10T01:37:44;3.80;;;2.05;;
73571;SDS011;61854;48.510;-2.770;2022-07-10T01:40:10;3.97;;;2.10;;
73571;SDS011;61854;48.510;-2.770;2022-07-10T01:42:36;4.72;;;2.17;;
73571;SDS011;61854;48.510;-2.770;2022-07-10T01:45:03;3.03;;;1.98;;
73571;SDS011;61854;48.510;-2.770;2022-07-10T01:47:30;4.85;;;2.35;;
73571;SDS011;61854;48.510;-2.770;2022-07-10T01:49:56;4.60;;;2.40;;
73571;SDS011;61854;48.510;-2.770;2022-07-10T01:52:21;5.68;;;2.53;;
73571;SDS011;61854;48.510;-2.770;2022-07-10T01:54:47;5.88;;;2.50;;
73571;SDS011;61854;48.510;-2.770;2022-07-10T01:57:13;4.03;;;2.38;;
73571;SDS011;61854;48.510;-2.770;2022-07-10T01:59:39;4.25;;;2.67;;
73571;SDS011;61854;48.510;-2.770;2022-07-10T02:02:05;5.20;;;2.70;;
73571;SDS011;61854;48.510;-2.770;2022-07-10T02:04:32;6.53;;;2.85;;
73571;SDS011;61854;48.510;-2.770;2022-07-10T02:07:07;6.85;;;3.40;;
73571;SDS011;61854;48.510;-2.770;2022-07-10T02:09:36;6.68;;;3.08;;
73571;SDS011;61854;48.510;-2.770;2022-07-10T02:12:04;7.03;;;3.28;;
73571;SDS011;61854;48.510;-2.770;2022-07-10T02:14:30;5.47;;;3.10;;
73571;SDS011;61854;48.510;-2.770;2022-07-10T02:16:56;6.10;;;3.22;;
73571;SDS011;61854;48.510;-2.770;2022-07-10T02:19:22;6.15;;;3.03;;
73571;SDS011;61854;48.510;-2.770;2022-07-10T02:21:48;4.53;;;2.92;;
73571;SDS011;61854;48.510;-2.770;2022-07-10T02:24:13;4.57;;;3.00;;
73571;SDS011;61854;48.510;-2.770;2022-07-10T02:26:39;4.38;;;2.95;;
73571;SDS011;61854;48.510;-2.770;2022-07-10T02:29:05;10.05;;;3.03;;
73571;SDS011;61854;48.510;-2.770;2022-07-10T02:31:30;4.70;;;3.20;;
73571;SDS011;61854;48.510;-2.770;2022-07-10T02:33:59;6.13;;;3.10;;
73571;SDS011;61854;48.510;-2.770;2022-07-10T02:36:25;7.07;;;3.22;;
73571;SDS011;61854;48.510;-2.770;2022-07-10T02:38:50;4.53;;;2.78;;
73571;SDS011;61854;48.510;-2.770;2022-07-10T02:41:16;7.95;;;3.03;;
73571;SDS011;61854;48.510;-2.770;2022-07-10T02:43:42;5.32;;;3.45;;
73571;SDS011;61854;48.510;-2.770;2022-07-10T02:46:07;7.00;;;3.40;;
73571;SDS011;61854;48.510;-2.770;2022-07-10T02:48:36;4.82;;;2.90;;
73571;SDS011;61854;48.510;-2.770;2022-07-10T02:51:01;4.78;;;3.20;;
73571;SDS011;61854;48.510;-2.770;2022-07-10T02:53:27;6.03;;;3.20;;
73571;SDS011;61854;48.510;-2.770;2022-07-10T02:55:53;6.05;;;3.22;;
73571;SDS011;61854;48.510;-2.770;2022-07-10T02:58:18;5.28;;;3.22;;
73571;SDS011;61854;48.510;-2.770;2022-07-10T03:00:44;5.07;;;3.20;;
73571;SDS011;61854;48.510;-2.770;2022-07-10T03:03:10;6.60;;;3.40;;
73571;SDS011;61854;48.510;-2.770;2022-07-10T03:05:36;9.02;;;3.80;;
73571;SDS011;61854;48.510;-2.770;2022-07-10T03:08:02;6.68;;;3.92;;
73571;SDS011;61854;48.510;-2.770;2022-07-10T03:10:28;5.95;;;3.78;;
73571;SDS011;61854;48.510;-2.770;2022-07-10T03:12:54;6.13;;;3.53;;
73571;SDS011;61854;48.510;-2.770;2022-07-10T03:15:19;8.50;;;3.90;;
73571;SDS011;61854;48.510;-2.770;2022-07-10T03:17:45;6.10;;;3.47;;
73571;SDS011;61854;48.510;-2.770;2022-07-10T03:20:11;6.30;;;3.92;;
73571;SDS011;61854;48.510;-2.770;2022-07-10T03:22:37;7.25;;;4.32;;
73571;SDS011;61854;48.510;-2.770;2022-07-10T03:25:03;11.00;;;3.92;;
73571;SDS011;61854;48.510;-2.770;2022-07-10T03:27:28;7.85;;;4.25;;
73571;SDS011;61854;48.510;-2.770;2022-07-10T03:29:54;9.02;;;3.90;;
73571;SDS011;61854;48.510;-2.770;2022-07-10T03:32:20;7.97;;;4.20;;
73571;SDS011;61854;48.510;-2.770;2022-07-10T03:34:45;9.43;;;4.50;;
73571;SDS011;61854;48.510;-2.770;2022-07-10T03:37:12;11.35;;;4.90;;
73571;SDS011;61854;48.510;-2.770;2022-07-10T03:39:37;7.38;;;4.55;;
73571;SDS011;61854;48.510;-2.770;2022-07-10T03:42:03;9.55;;;3.92;;
73571;SDS011;61854;48.510;-2.770;2022-07-10T03:44:29;8.60;;;4.75;;
73571;SDS011;61854;48.510;-2.770;2022-07-10T03:46:54;7.63;;;4.00;;
73571;SDS011;61854;48.510;-2.770;2022-07-10T03:49:20;7.10;;;4.82;;
73571;SDS011;61854;48.510;-2.770;2022-07-10T03:51:46;10.50;;;4.25;;
73571;SDS011;61854;48.510;-2.770;2022-07-10T03:54:11;7.95;;;4.28;;
73571;SDS011;61854;48.510;-2.770;2022-07-10T03:56:37;7.88;;;3.85;;
73571;SDS011;61854;48.510;-2.770;2022-07-10T03:59:21;6.20;;;3.67;;
73571;SDS011;61854;48.510;-2.770;2022-07-10T04:01:47;6.50;;;3.78;;
73571;SDS011;61854;48.510;-2.770;2022-07-10T04:04:12;9.80;;;3.97;;
73571;SDS011;61854;48.510;-2.770;2022-07-10T04:06:38;5.88;;;3.70;;
73571;SDS011;61854;48.510;-2.770;2022-07-10T04:09:07;7.32;;;3.38;;
73571;SDS011;61854;48.510;-2.770;2022-07-10T04:11:32;7.20;;;3.55;;
73571;SDS011;61854;48.510;-2.770;2022-07-10T04:13:58;7.70;;;3.60;;
73571;SDS011;61854;48.510;-2.770;2022-07-10T04:16:24;7.10;;;3.70;;
73571;SDS011;61854;48.510;-2.770;2022-07-10T04:18:49;8.65;;;3.90;;
73571;SDS011;61854;48.510;-2.770;2022-07-10T04:21:15;8.80;;;4.00;;
73571;SDS011;61854;48.510;-2.770;2022-07-10T04:23:41;8.00;;;4.00;;
73571;SDS011;61854;48.510;-2.770;2022-07-10T04:26:06;6.55;;;3.85;;
73571;SDS011;61854;48.510;-2.770;2022-07-10T04:28:32;8.63;;;3.85;;
73571;SDS011;61854;48.510;-2.770;2022-07-10T04:30:58;5.35;;;3.50;;
73571;SDS011;61854;48.510;-2.770;2022-07-10T04:33:24;9.32;;;4.18;;
73571;SDS011;61854;48.510;-2.770;2022-07-10T04:35:50;6.80;;;4.10;;
73571;SDS011;61854;48.510;-2.770;2022-07-10T04:38:16;7.95;;;4.03;;
73571;SDS011;61854;48.510;-2.770;2022-07-10T04:40:41;8.18;;;4.40;;
73571;SDS011;61854;48.510;-2.770;2022-07-10T04:43:07;9.27;;;4.13;;
73571;SDS011;61854;48.510;-2.770;2022-07-10T04:45:35;9.82;;;4.03;;
73571;SDS011;61854;48.510;-2.770;2022-07-10T04:48:02;10.20;;;4.30;;
73571;SDS011;61854;48.510;-2.770;2022-07-10T04:50:29;9.35;;;4.20;;
73571;SDS011;61854;48.510;-2.770;2022-07-10T04:52:55;9.75;;;4.55;;
73571;SDS011;61854;48.510;-2.770;2022-07-10T04:55:21;8.20;;;4.32;;
73571;SDS011;61854;48.510;-2.770;2022-07-10T04:57:47;5.40;;;4.40;;
73571;SDS011;61854;48.510;-2.770;2022-07-10T05:00:13;8.80;;;4.60;;
73571;SDS011;61854;48.510;-2.770;2022-07-10T05:02:39;10.25;;;4.50;;
73571;SDS011;61854;48.510;-2.770;2022-07-10T05:05:05;7.18;;;4.82;;
73571;SDS011;61854;48.510;-2.770;2022-07-10T05:07:30;6.90;;;4.47;;
73571;SDS011;61854;48.510;-2.770;2022-07-10T05:09:56;7.15;;;4.78;;
73571;SDS011;61854;48.510;-2.770;2022-07-10T05:12:22;9.70;;;4.80;;
73571;SDS011;61854;48.510;-2.770;2022-07-10T05:14:47;6.60;;;4.60;;
73571;SDS011;61854;48.510;-2.770;2022-07-10T05:17:13;6.18;;;4.40;;
73571;SDS011;61854;48.510;-2.770;2022-07-10T05:19:39;9.88;;;4.80;;
73571;SDS011;61854;48.510;-2.770;2022-07-10T05:22:04;8.15;;;4.65;;
73571;SDS011;61854;48.510;-2.770;2022-07-10T05:24:30;7.50;;;4.65;;
73571;SDS011;61854;48.510;-2.770;2022-07-10T05:26:56;9.48;;;4.60;;
73571;SDS011;61854;48.510;-2.770;2022-07-10T05:29:21;7.68;;;4.43;;
73571;SDS011;61854;48.510;-2.770;2022-07-10T05:31:47;8.93;;;4.65;;
73571;SDS011;61854;48.510;-2.770;2022-07-10T05:34:12;8.80;;;4.80;;
73571;SDS011;61854;48.510;-2.770;2022-07-10T05:36:38;8.20;;;4.90;;
73571;SDS011;61854;48.510;-2.770;2022-07-10T05:39:04;8.23;;;4.93;;
73571;SDS011;61854;48.510;-2.770;2022-07-10T05:41:29;9.55;;;5.57;;
73571;SDS011;61854;48.510;-2.770;2022-07-10T05:43:57;7.90;;;5.10;;
73571;SDS011;61854;48.510;-2.770;2022-07-10T05:46:24;8.05;;;5.53;;
73571;SDS011;61854;48.510;-2.770;2022-07-10T05:48:49;8.10;;;5.50;;
73571;SDS011;61854;48.510;-2.770;2022-07-10T05:51:15;8.35;;;5.60;;
73571;SDS011;61854;48.510;-2.770;2022-07-10T05:53:40;9.48;;;5.47;;
73571;SDS011;61854;48.510;-2.770;2022-07-10T05:56:06;8.50;;;5.40;;
73571;SDS011;61854;48.510;-2.770;2022-07-10T05:58:31;8.68;;;5.82;;
73571;SDS011;61854;48.510;-2.770;2022-07-10T06:00:57;7.30;;;5.70;;
73571;SDS011;61854;48.510;-2.770;2022-07-10T06:03:23;8.02;;;5.00;;
73571;SDS011;61854;48.510;-2.770;2022-07-10T06:05:49;8.20;;;5.18;;
73571;SDS011;61854;48.510;-2.770;2022-07-10T06:08:15;9.90;;;5.45;;
73571;SDS011;61854;48.510;-2.770;2022-07-10T06:10:40;6.68;;;5.05;;
73571;SDS011;61854;48.510;-2.770;2022-07-10T06:13:09;9.07;;;5.05;;
73571;SDS011;61854;48.510;-2.770;2022-07-10T06:15:35;6.85;;;4.25;;
73571;SDS011;61854;48.510;-2.770;2022-07-10T06:18:00;11.20;;;4.38;;
73571;SDS011;61854;48.510;-2.770;2022-07-10T06:20:26;8.93;;;4.72;;
73571;SDS011;61854;48.510;-2.770;2022-07-10T06:22:52;7.80;;;4.70;;
73571;SDS011;61854;48.510;-2.770;2022-07-10T06:25:18;7.07;;;4.57;;
73571;SDS011;61854;48.510;-2.770;2022-07-10T06:27:43;6.35;;;4.18;;
73571;SDS011;61854;48.510;-2.770;2022-07-10T06:30:09;9.02;;;4.30;;
73571;SDS011;61854;48.510;-2.770;2022-07-10T06:32:35;6.82;;;4.03;;
73571;SDS011;61854;48.510;-2.770;2022-07-10T06:35:01;6.05;;;4.18;;
73571;SDS011;61854;48.510;-2.770;2022-07-10T06:37:28;6.50;;;3.75;;
73571;SDS011;61854;48.510;-2.770;2022-07-10T06:39:55;6.57;;;3.08;;
73571;SDS011;61854;48.510;-2.770;2022-07-10T06:42:21;7.03;;;3.75;;
73571;SDS011;61854;48.510;-2.770;2022-07-10T06:44:46;5.75;;;3.45;;
73571;SDS011;61854;48.510;-2.770;2022-07-10T06:47:13;4.47;;;3.22;;
73571;SDS011;61854;48.510;-2.770;2022-07-10T06:50:00;5.93;;;2.72;;
73571;SDS011;61854;48.510;-2.770;2022-07-10T06:52:27;8.27;;;3.20;;
73571;SDS011;61854;48.510;-2.770;2022-07-10T06:54:52;5.75;;;3.20;;
73571;SDS011;61854;48.510;-2.770;2022-07-10T06:57:18;5.72;;;3.10;;
73571;SDS011;61854;48.510;-2.770;2022-07-10T06:59:45;7.90;;;2.90;;
73571;SDS011;61854;48.510;-2.770;2022-07-10T07:02:12;5.57;;;2.33;;
73571;SDS011;61854;48.510;-2.770;2022-07-10T07:04:37;3.88;;;2.78;;
73571;SDS011;61854;48.510;-2.770;2022-07-10T07:07:03;4.35;;;2.70;;
73571;SDS011;61854;48.510;-2.770;2022-07-10T07:09:29;6.93;;;2.60;;
73571;SDS011;61854;48.510;-2.770;2022-07-10T07:11:55;5.10;;;2.13;;
73571;SDS011;61854;48.510;-2.770;2022-07-10T07:14:20;4.15;;;1.98;;
73571;SDS011;61854;48.510;-2.770;2022-07-10T07:16:46;4.13;;;1.90;;
73571;SDS011;61854;48.510;-2.770;2022-07-10T07:19:22;3.95;;;1.75;;
73571;SDS011;61854;48.510;-2.770;2022-07-10T07:21:55;3.63;;;1.75;;
73571;SDS011;61854;48.510;-2.770;2022-07-10T07:24:45;4.55;;;1.60;;
73571;SDS011;61854;48.510;-2.770;2022-07-10T07:27:11;3.70;;;1.50;;
73571;SDS011;61854;48.510;-2.770;2022-07-10T07:29:37;3.38;;;1.30;;
73571;SDS011;61854;48.510;-2.770;2022-07-10T07:32:02;4.28;;;1.40;;
73571;SDS011;61854;48.510;-2.770;2022-07-10T07:34:29;2.65;;;1.30;;
73571;SDS011;61854;48.510;-2.770;2022-07-10T07:36:56;2.35;;;1.02;;
73571;SDS011;61854;48.510;-2.770;2022-07-10T07:39:22;1.70;;;1.00;;
73571;SDS011;61854;48.510;-2.770;2022-07-10T07:41:47;2.45;;;0.90;;
73571;SDS011;61854;48.510;-2.770;2022-07-10T07:44:13;2.15;;;1.20;;
73571;SDS011;61854;48.510;-2.770;2022-07-10T07:46:41;2.00;;;0.90;;
73571;SDS011;61854;48.510;-2.770;2022-07-10T07:49:06;2.13;;;1.10;;
73571;SDS011;61854;48.510;-2.770;2022-07-10T07:51:32;5.97;;;1.02;;
73571;SDS011;61854;48.510;-2.770;2022-07-10T07:53:58;2.40;;;1.10;;
73571;SDS011;61854;48.510;-2.770;2022-07-10T07:56:24;2.55;;;1.00;;
73571;SDS011;61854;48.510;-2.770;2022-07-10T07:58:49;2.95;;;0.82;;
73571;SDS011;61854;48.510;-2.770;2022-07-10T08:01:15;2.47;;;1.10;;
73571;SDS011;61854;48.510;-2.770;2022-07-10T08:03:41;2.70;;;0.90;;
73571;SDS011;61854;48.510;-2.770;2022-07-10T08:06:06;1.55;;;0.80;;
73571;SDS011;61854;48.510;-2.770;2022-07-10T08:08:33;2.38;;;0.90;;
73571;SDS011;61854;48.510;-2.770;2022-07-10T08:10:58;1.63;;;0.70;;
73571;SDS011;61854;48.510;-2.770;2022-07-10T08:13:24;2.20;;;0.88;;
73571;SDS011;61854;48.510;-2.770;2022-07-10T08:15:49;2.30;;;0.80;;
73571;SDS011;61854;48.510;-2.770;2022-07-10T08:18:15;1.88;;;0.90;;
73571;SDS011;61854;48.510;-2.770;2022-07-10T08:20:41;1.85;;;0.70;;
73571;SDS011;61854;48.510;-2.770;2022-07-10T08:23:06;4.20;;;0.80;;
73571;SDS011;61854;48.510;-2.770;2022-07-10T08:25:32;1.02;;;0.60;;
73571;SDS011;61854;48.510;-2.770;2022-07-10T08:28:02;1.77;;;0.70;;
73571;SDS011;61854;48.510;-2.770;2022-07-10T08:30:30;1.52;;;0.60;;
73571;SDS011;61854;48.510;-2.770;2022-07-10T08:32:56;2.90;;;0.70;;
73571;SDS011;61854;48.510;-2.770;2022-07-10T08:35:22;4.05;;;0.70;;
73571;SDS011;61854;48.510;-2.770;2022-07-10T08:37:47;2.13;;;0.70;;
73571;SDS011;61854;48.510;-2.770;2022-07-10T08:40:14;2.03;;;0.75;;
73571;SDS011;61854;48.510;-2.770;2022-07-10T08:42:41;1.40;;;0.57;;
73571;SDS011;61854;48.510;-2.770;2022-07-10T08:45:09;1.70;;;0.60;;
73571;SDS011;61854;48.510;-2.770;2022-07-10T08:47:36;2.78;;;0.70;;
73571;SDS011;61854;48.510;-2.770;2022-07-10T08:50:03;1.33;;;0.70;;
73571;SDS011;61854;48.510;-2.770;2022-07-10T08:52:34;1.10;;;0.55;;
73571;SDS011;61854;48.510;-2.770;2022-07-10T08:55:11;3.35;;;0.68;;
73571;SDS011;61854;48.510;-2.770;2022-07-10T08:57:39;2.22;;;0.70;;
73571;SDS011;61854;48.510;-2.770;2022-07-10T09:00:08;1.98;;;0.80;;
73571;SDS011;61854;48.510;-2.770;2022-07-10T09:02:34;1.45;;;0.77;;
73571;SDS011;61854;48.510;-2.770;2022-07-10T09:05:00;1.30;;;0.70;;
73571;SDS011;61854;48.510;-2.770;2022-07-10T09:07:34;2.75;;;0.52;;
73571;SDS011;61854;48.510;-2.770;2022-07-10T09:10:04;1.55;;;0.70;;
73571;SDS011;61854;48.510;-2.770;2022-07-10T09:12:32;1.55;;;0.70;;
73571;SDS011;61854;48.510;-2.770;2022-07-10T09:15:15;2.35;;;0.60;;
73571;SDS011;61854;48.510;-2.770;2022-07-10T09:17:49;2.58;;;0.60;;
73571;SDS011;61854;48.510;-2.770;2022-07-10T09:20:25;1.27;;;0.65;;
73571;SDS011;61854;48.510;-2.770;2022-07-10T09:22:51;2.30;;;0.60;;
73571;SDS011;61854;48.510;-2.770;2022-07-10T09:25:17;3.13;;;0.73;;
73571;SDS011;61854;48.510;-2.770;2022-07-10T09:27:52;2.15;;;0.70;;
73571;SDS011;61854;48.510;-2.770;2022-07-10T09:30:30;2.53;;;0.73;;
73571;SDS011;61854;48.510;-2.770;2022-07-10T09:41:12;1.77;;;0.80;;
73571;SDS011;61854;48.510;-2.770;2022-07-10T09:43:54;1.48;;;0.80;;
73571;SDS011;61854;48.510;-2.770;2022-07-10T09:46:26;3.33;;;0.93;;
73571;SDS011;61854;48.510;-2.770;2022-07-10T09:49:11;2.00;;;0.93;;
73571;SDS011;61854;48.510;-2.770;2022-07-10T09:54:05;2.45;;;1.00;;
73571;SDS011;61854;48.510;-2.770;2022-07-10T09:56:43;2.70;;;0.80;;
73571;SDS011;61854;48.510;-2.770;2022-07-10T09:59:15;2.05;;;0.80;;
73571;SDS011;61854;48.510;-2.770;2022-07-10T10:01:46;2.10;;;0.85;;
73571;SDS011;61854;48.510;-2.770;2022-07-10T10:04:16;4.75;;;0.82;;
73571;SDS011;61854;48.510;-2.770;2022-07-10T10:06:45;3.22;;;0.90;;
73571;SDS011;61854;48.510;-2.770;2022-07-10T10:09:24;1.77;;;0.90;;
73571;SDS011;61854;48.510;-2.770;2022-07-10T10:11:56;2.40;;;1.02;;
73571;SDS011;61854;48.510;-2.770;2022-07-10T10:14:24;2.42;;;1.00;;
73571;SDS011;61854;48.510;-2.770;2022-07-10T10:16:52;2.95;;;1.17;;
73571;SDS011;61854;48.510;-2.770;2022-07-10T10:19:20;3.08;;;0.98;;
73571;SDS011;61854;48.510;-2.770;2022-07-10T10:22:08;5.27;;;1.20;;
73571;SDS011;61854;48.510;-2.770;2022-07-10T10:24:34;3.25;;;1.00;;
73571;SDS011;61854;48.510;-2.770;2022-07-10T10:27:01;3.20;;;0.90;;
73571;SDS011;61854;48.510;-2.770;2022-07-10T10:29:29;1.55;;;0.88;;
73571;SDS011;61854;48.510;-2.770;2022-07-10T10:31:55;4.15;;;1.00;;
73571;SDS011;61854;48.510;-2.770;2022-07-10T10:34:37;1.88;;;0.90;;
73571;SDS011;61854;48.510;-2.770;2022-07-10T10:37:32;1.98;;;1.00;;
73571;SDS011;61854;48.510;-2.770;2022-07-10T10:42:43;3.03;;;1.00;;
73571;SDS011;61854;48.510;-2.770;2022-07-10T10:48:06;2.90;;;0.95;;
73571;SDS011;61854;48.510;-2.770;2022-07-10T10:50:41;5.07;;;1.10;;
73571;SDS011;61854;48.510;-2.770;2022-07-10T11:01:04;4.28;;;1.20;;
73571;SDS011;61854;48.510;-2.770;2022-07-10T11:03:31;3.47;;;1.40;;
73571;SDS011;61854;48.510;-2.770;2022-07-10T11:05:57;5.00;;;1.00;;
73571;SDS011;61854;48.510;-2.770;2022-07-10T11:08:34;2.40;;;0.98;;
73571;SDS011;61854;48.510;-2.770;2022-07-10T11:13:58;2.58;;;0.85;;
73571;SDS011;61854;48.510;-2.770;2022-07-10T11:16:24;2.88;;;0.90;;
73571;SDS011;61854;48.510;-2.770;2022-07-10T11:18:53;3.30;;;1.17;;
73571;SDS011;61854;48.510;-2.770;2022-07-10T11:21:23;3.45;;;1.10;;
73571;SDS011;61854;48.510;-2.770;2022-07-10T11:26:35;5.80;;;1.30;;
73571;SDS011;61854;48.510;-2.770;2022-07-10T11:29:05;4.45;;;1.10;;
73571;SDS011;61854;48.510;-2.770;2022-07-10T11:31:31;2.75;;;0.95;;
73571;SDS011;61854;48.510;-2.770;2022-07-10T11:34:05;3.33;;;1.08;;
73571;SDS011;61854;48.510;-2.770;2022-07-10T11:36:31;2.00;;;1.10;;
73571;SDS011;61854;48.510;-2.770;2022-07-10T11:39:04;3.35;;;1.10;;
73571;SDS011;61854;48.510;-2.770;2022-07-10T11:41:31;6.20;;;1.05;;
73571;SDS011;61854;48.510;-2.770;2022-07-10T11:46:26;2.47;;;0.85;;
73571;SDS011;61854;48.510;-2.770;2022-07-10T11:48:55;4.15;;;1.10;;
73571;SDS011;61854;48.510;-2.770;2022-07-10T11:51:29;3.40;;;0.90;;
73571;SDS011;61854;48.510;-2.770;2022-07-10T11:54:03;2.20;;;1.00;;
73571;SDS011;61854;48.510;-2.770;2022-07-10T11:56:31;3.30;;;1.20;;
73571;SDS011;61854;48.510;-2.770;2022-07-10T11:59:00;3.88;;;1.23;;
73571;SDS011;61854;48.510;-2.770;2022-07-10T12:03:58;7.38;;;1.02;;
73571;SDS011;61854;48.510;-2.770;2022-07-10T12:06:25;3.78;;;1.02;;
73571;SDS011;61854;48.510;-2.770;2022-07-10T12:08:52;2.78;;;1.00;;
73571;SDS011;61854;48.510;-2.770;2022-07-10T12:11:19;2.65;;;0.90;;
73571;SDS011;61854;48.510;-2.770;2022-07-10T12:13:47;3.08;;;1.00;;
73571;SDS011;61854;48.510;-2.770;2022-07-10T12:16:15;3.47;;;1.00;;
73571;SDS011;61854;48.510;-2.770;2022-07-10T12:18:41;3.17;;;1.13;;
73571;SDS011;61854;48.510;-2.770;2022-07-10T12:21:08;2.58;;;0.95;;
73571;SDS011;61854;48.510;-2.770;2022-07-10T12:23:35;5.30;;;1.13;;
73571;SDS011;61854;48.510;-2.770;2022-07-10T12:26:04;4.00;;;1.10;;
73571;SDS011;61854;48.510;-2.770;2022-07-10T12:31:19;3.50;;;1.05;;
73571;SDS011;61854;48.510;-2.770;2022-07-10T12:33:52;2.17;;;0.90;;
73571;SDS011;61854;48.510;-2.770;2022-07-10T12:36:20;1.60;;;0.80;;
73571;SDS011;61854;48.510;-2.770;2022-07-10T12:38:53;4.30;;;1.00;;
73571;SDS011;61854;48.510;-2.770;2022-07-10T12:41:20;3.53;;;1.15;;
73571;SDS011;61854;48.510;-2.770;2022-07-10T12:43:49;2.63;;;1.00;;
73571;SDS011;61854;48.510;-2.770;2022-07-10T12:49:05;4.40;;;1.00;;
73571;SDS011;61854;48.510;-2.770;2022-07-10T12:51:33;5.82;;;1.13;;
73571;SDS011;61854;48.510;-2.770;2022-07-10T12:54:01;3.88;;;1.10;;
73571;SDS011;61854;48.510;-2.770;2022-07-10T12:56:28;3.78;;;1.05;;
73571;SDS011;61854;48.510;-2.770;2022-07-10T12:59:02;3.33;;;0.98;;
73571;SDS011;61854;48.510;-2.770;2022-07-10T13:01:38;5.60;;;0.98;;
73571;SDS011;61854;48.510;-2.770;2022-07-10T13:04:08;4.68;;;1.10;;
73571;SDS011;61854;48.510;-2.770;2022-07-10T13:06:34;5.57;;;1.15;;
73571;SDS011;61854;48.510;-2.770;2022-07-10T13:09:01;3.35;;;0.98;;
73571;SDS011;61854;48.510;-2.770;2022-07-10T13:11:42;4.00;;;0.90;;
73571;SDS011;61854;48.510;-2.770;2022-07-10T13:14:08;2.95;;;1.00;;
73571;SDS011;61854;48.510;-2.770;2022-07-10T13:16:33;4.13;;;1.05;;
73571;SDS011;61854;48.510;-2.770;2022-07-10T13:19:00;5.07;;;1.00;;
73571;SDS011;61854;48.510;-2.770;2022-07-10T13:21:25;3.05;;;0.95;;
73571;SDS011;61854;48.510;-2.770;2022-07-10T13:23:51;2.92;;;1.10;;
73571;SDS011;61854;48.510;-2.770;2022-07-10T13:26:17;3.30;;;1.08;;
73571;SDS011;61854;48.510;-2.770;2022-07-10T13:28:42;4.18;;;1.60;;
73571;SDS011;61854;48.510;-2.770;2022-07-10T13:31:08;3.50;;;1.15;;
73571;SDS011;61854;48.510;-2.770;2022-07-10T13:33:34;3.50;;;0.98;;
73571;SDS011;61854;48.510;-2.770;2022-07-10T13:36:00;5.72;;;1.10;;
73571;SDS011;61854;48.510;-2.770;2022-07-10T13:38:27;3.53;;;1.00;;
73571;SDS011;61854;48.510;-2.770;2022-07-10T13:40:53;3.97;;;0.95;;
73571;SDS011;61854;48.510;-2.770;2022-07-10T13:43:19;3.05;;;1.02;;
73571;SDS011;61854;48.510;-2.770;2022-07-10T13:45:53;10.50;;;1.10;;
73571;SDS011;61854;48.510;-2.770;2022-07-10T13:48:23;4.20;;;1.00;;
73571;SDS011;61854;48.510;-2.770;2022-07-10T13:50:49;2.35;;;0.95;;
73571;SDS011;61854;48.510;-2.770;2022-07-10T13:53:18;4.03;;;1.08;;
73571;SDS011;61854;48.510;-2.770;2022-07-10T13:55:44;4.53;;;1.10;;
73571;SDS011;61854;48.510;-2.770;2022-07-10T13:58:10;3.55;;;0.90;;
73571;SDS011;61854;48.510;-2.770;2022-07-10T14:00:37;3.25;;;1.05;;
73571;SDS011;61854;48.510;-2.770;2022-07-10T14:03:03;5.70;;;0.93;;
73571;SDS011;61854;48.510;-2.770;2022-07-10T14:05:30;4.88;;;0.90;;
73571;SDS011;61854;48.510;-2.770;2022-07-10T14:07:57;2.85;;;1.05;;
73571;SDS011;61854;48.510;-2.770;2022-07-10T14:10:23;12.73;;;1.30;;
73571;SDS011;61854;48.510;-2.770;2022-07-10T14:12:49;13.30;;;1.40;;
73571;SDS011;61854;48.510;-2.770;2022-07-10T14:15:16;4.47;;;1.10;;
73571;SDS011;61854;48.510;-2.770;2022-07-10T14:17:42;5.10;;;1.10;;
73571;SDS011;61854;48.510;-2.770;2022-07-10T14:20:08;6.93;;;0.80;;
73571;SDS011;61854;48.510;-2.770;2022-07-10T14:22:34;3.63;;;0.85;;
73571;SDS011;61854;48.510;-2.770;2022-07-10T14:25:01;3.70;;;1.10;;
73571;SDS011;61854;48.510;-2.770;2022-07-10T14:27:27;5.70;;;1.00;;
73571;SDS011;61854;48.510;-2.770;2022-07-10T14:29:54;4.15;;;1.15;;
73571;SDS011;61854;48.510;-2.770;2022-07-10T14:32:19;2.15;;;1.08;;
73571;SDS011;61854;48.510;-2.770;2022-07-10T14:34:45;3.20;;;0.90;;
73571;SDS011;61854;48.510;-2.770;2022-07-10T14:37:11;4.90;;;1.20;;
73571;SDS011;61854;48.510;-2.770;2022-07-10T14:39:36;3.53;;;1.00;;
73571;SDS011;61854;48.510;-2.770;2022-07-10T14:42:02;13.43;;;1.10;;
73571;SDS011;61854;48.510;-2.770;2022-07-10T14:44:30;2.80;;;0.90;;
73571;SDS011;61854;48.510;-2.770;2022-07-10T14:49:22;5.47;;;1.10;;
73571;SDS011;61854;48.510;-2.770;2022-07-10T14:51:48;1.83;;;0.80;;
73571;SDS011;61854;48.510;-2.770;2022-07-10T14:54:14;3.88;;;1.08;;
73571;SDS011;61854;48.510;-2.770;2022-07-10T14:56:40;9.52;;;1.30;;
73571;SDS011;61854;48.510;-2.770;2022-07-10T14:59:07;4.13;;;1.00;;
73571;SDS011;61854;48.510;-2.770;2022-07-10T15:01:33;2.70;;;1.00;;
73571;SDS011;61854;48.510;-2.770;2022-07-10T15:03:59;3.05;;;0.88;;
73571;SDS011;61854;48.510;-2.770;2022-07-10T15:06:25;2.03;;;0.90;;
73571;SDS011;61854;48.510;-2.770;2022-07-10T15:08:50;4.30;;;1.27;;
73571;SDS011;61854;48.510;-2.770;2022-07-10T15:11:16;2.97;;;0.93;;
73571;SDS011;61854;48.510;-2.770;2022-07-10T15:13:43;12.65;;;1.42;;
73571;SDS011;61854;48.510;-2.770;2022-07-10T15:16:09;1.98;;;0.90;;